createdAt,value
2023-05-08T00:00:49.033Z,11.91
2023-05-08T00:03:18.434Z,11.92
2023-05-08T00:05:46.616Z,11.88
2023-05-08T00:08:14.684Z,11.79
2023-05-08T00:10:43.063Z,11.77
2023-05-08T00:13:11.178Z,11.74
2023-05-08T00:15:39.585Z,11.70
2023-05-08T00:18:09.374Z,11.69
2023-05-08T00:20:37.941Z,11.65
2023-05-08T00:23:06.415Z,11.57
2023-05-08T00:25:34.728Z,11.54
2023-05-08T00:28:03.095Z,11.49
2023-05-08T00:30:31.294Z,11.45
2023-05-08T00:32:59.670Z,11.43
2023-05-08T00:35:29.379Z,11.35
2023-05-08T00:37:57.658Z,11.31
2023-05-08T00:40:27.057Z,11.26
2023-05-08T00:42:55.458Z,11.29
2023-05-08T00:45:23.664Z,11.24
2023-05-08T00:47:52.485Z,11.18
2023-05-08T00:50:21.257Z,11.15
2023-05-08T00:52:51.724Z,11.14
2023-05-08T00:55:21.130Z,11.05
2023-05-08T00:57:49.573Z,11.10
2023-05-08T01:00:19.959Z,11.06
2023-05-08T01:02:48.973Z,11.03
2023-05-08T01:05:17.559Z,11.03
2023-05-08T01:07:46.452Z,11.01
2023-05-08T01:10:16.450Z,10.98
2023-05-08T01:12:57.692Z,10.99
2023-05-08T01:15:32.968Z,11.00
2023-05-08T01:18:13.271Z,10.97
2023-05-08T01:20:50.133Z,10.99
2023-05-08T01:23:58.737Z,10.98
2023-05-08T01:27:11.325Z,10.97
2023-05-08T01:30:17.695Z,10.97
2023-05-08T01:32:57.566Z,10.99
2023-05-08T01:35:31.265Z,11.02
2023-05-08T01:38:06.084Z,11.03
2023-05-08T01:40:42.274Z,11.03
2023-05-08T01:43:20.246Z,11.02
2023-05-08T01:45:51.387Z,11.12
2023-05-08T01:48:25.782Z,11.14
2023-05-08T01:50:59.806Z,11.05
2023-05-08T01:53:30.272Z,11.11
2023-05-08T01:56:01.897Z,11.03
2023-05-08T01:58:32.631Z,10.94
2023-05-08T02:01:04.048Z,10.97
2023-05-08T02:03:36.458Z,10.93
2023-05-08T02:06:06.150Z,10.81
2023-05-08T02:08:36.509Z,10.75
2023-05-08T02:11:07.255Z,10.68
2023-05-08T02:13:38.132Z,10.67
2023-05-08T02:16:09.622Z,10.64
2023-05-08T02:18:42.840Z,10.59
2023-05-08T02:21:14.057Z,10.57
2023-05-08T02:23:45.021Z,10.49
2023-05-08T02:26:16.083Z,10.48
2023-05-08T02:28:44.699Z,10.46
2023-05-08T02:31:14.783Z,10.44
2023-05-08T02:33:46.566Z,10.31
2023-05-08T02:36:19.037Z,10.28
2023-05-08T02:38:52.109Z,10.33
2023-05-08T02:41:23.106Z,10.29
2023-05-08T02:43:52.980Z,10.22
2023-05-08T02:46:26.414Z,10.25
2023-05-08T02:49:03.854Z,10.28
2023-05-08T02:51:44.422Z,10.33
2023-05-08T02:54:19.226Z,10.31
2023-05-08T02:56:56.943Z,10.31
2023-05-08T02:59:32.863Z,10.28
2023-05-08T03:02:08.051Z,10.23
2023-05-08T03:04:41.869Z,10.23
2023-05-08T03:07:11.759Z,10.15
2023-05-08T03:09:44.636Z,10.13
2023-05-08T03:12:18.685Z,10.08
2023-05-08T03:14:53.303Z,10.10
2023-05-08T03:17:24.202Z,10.03
2023-05-08T03:20:00.734Z,10.00
2023-05-08T03:22:30.459Z,9.97
2023-05-08T03:25:01.089Z,9.97
2023-05-08T03:27:30.737Z,9.94
2023-05-08T03:30:00.802Z,9.91
2023-05-08T03:32:31.052Z,9.91
2023-05-08T03:35:04.096Z,9.87
2023-05-08T03:37:32.375Z,9.83
2023-05-08T03:40:01.218Z,9.81
2023-05-08T03:42:29.751Z,9.82
2023-05-08T03:44:59.216Z,9.74
2023-05-08T03:47:28.686Z,9.83
2023-05-08T03:49:57.196Z,9.79
2023-05-08T03:52:27.388Z,9.80
2023-05-08T03:54:55.597Z,9.70
2023-05-08T03:57:29.692Z,9.67
2023-05-08T04:00:02.568Z,9.71
2023-05-08T04:02:40.136Z,9.65
2023-05-08T04:05:22.349Z,9.70
2023-05-08T04:07:55.285Z,9.72
2023-05-08T04:10:28.352Z,9.64
2023-05-08T04:13:04.877Z,9.73
2023-05-08T04:15:37.438Z,9.72
2023-05-08T04:18:10.222Z,9.76
2023-05-08T04:20:41.864Z,9.73
2023-05-08T04:23:18.517Z,9.74
2023-05-08T04:25:48.649Z,9.70
2023-05-08T04:28:17.162Z,9.79
2023-05-08T04:30:46.559Z,9.80
2023-05-08T04:33:18.387Z,9.80
2023-05-08T04:35:47.517Z,9.80
2023-05-08T04:38:17.217Z,9.86
2023-05-08T04:40:45.295Z,9.86
2023-05-08T04:43:14.186Z,9.95
2023-05-08T04:45:42.499Z,9.90
2023-05-08T04:48:10.861Z,10.02
2023-05-08T04:50:39.658Z,10.09
2023-05-08T04:53:08.243Z,10.01
2023-05-08T04:55:38.132Z,9.99
2023-05-08T04:58:06.549Z,9.95
2023-05-08T05:00:35.889Z,9.90
2023-05-08T05:03:04.750Z,10.00
2023-05-08T05:05:33.058Z,9.98
2023-05-08T05:08:01.724Z,9.97
2023-05-08T05:10:30.168Z,9.99
2023-05-08T05:13:02.127Z,10.01
2023-05-08T05:15:30.758Z,10.03
2023-05-08T05:17:59.128Z,10.10
2023-05-08T05:20:27.359Z,10.17
2023-05-08T05:22:55.925Z,10.27
2023-05-08T05:25:24.324Z,10.34
2023-05-08T05:27:52.779Z,10.53
2023-05-08T05:30:22.791Z,10.63
2023-05-08T05:32:51.378Z,10.51
2023-05-08T05:35:25.395Z,10.43
2023-05-08T05:37:54.086Z,10.53
2023-05-08T05:40:23.295Z,10.65
2023-05-08T05:42:52.483Z,10.71
2023-05-08T05:45:22.176Z,10.72
2023-05-08T05:47:54.356Z,10.89
2023-05-08T05:50:23.089Z,10.81
2023-05-08T05:52:51.446Z,10.91
2023-05-08T05:55:19.884Z,10.94
2023-05-08T05:57:48.629Z,11.11
2023-05-08T06:00:19.210Z,11.04
2023-05-08T06:02:49.631Z,11.02
2023-05-08T06:05:19.322Z,11.06
2023-05-08T06:07:47.880Z,11.17
2023-05-08T06:10:16.329Z,11.28
2023-05-08T06:12:44.655Z,11.26
2023-05-08T06:15:15.406Z,11.43
2023-05-08T06:17:44.149Z,11.58
2023-05-08T06:20:14.234Z,11.74
2023-05-08T06:22:42.753Z,11.46
2023-05-08T06:25:11.909Z,11.60
2023-05-08T06:27:40.438Z,11.71
2023-05-08T06:30:11.025Z,11.65
2023-05-08T06:32:39.430Z,11.82
2023-05-08T06:35:09.076Z,11.91
2023-05-08T06:37:39.178Z,11.92
2023-05-08T06:40:12.198Z,11.64
2023-05-08T06:42:41.846Z,11.63
2023-05-08T06:45:11.408Z,11.72
2023-05-08T06:47:40.124Z,11.68
2023-05-08T06:50:09.563Z,11.86
2023-05-08T06:52:39.471Z,12.20
2023-05-08T06:55:08.280Z,12.36
2023-05-08T06:57:37.044Z,12.32
2023-05-08T07:00:06.830Z,12.50
2023-05-08T07:02:35.270Z,12.52
2023-05-08T07:05:03.670Z,12.29
2023-05-08T07:07:32.174Z,12.64
2023-05-08T07:10:02.108Z,12.88
2023-05-08T07:12:30.248Z,12.80
2023-05-08T07:14:58.726Z,13.29
2023-05-08T07:17:27.365Z,13.40
2023-05-08T07:19:55.850Z,13.83
2023-05-08T07:22:24.542Z,13.78
2023-05-08T07:24:52.704Z,13.64
2023-05-08T07:27:22.397Z,13.43
2023-05-08T07:29:50.807Z,13.69
2023-05-08T07:32:19.268Z,14.09
2023-05-08T07:34:48.181Z,14.22
2023-05-08T07:37:16.929Z,14.16
2023-05-08T07:39:45.503Z,13.95
2023-05-08T07:42:14.177Z,13.56
2023-05-08T07:44:53.739Z,13.74
2023-05-08T07:47:23.253Z,13.55
2023-05-08T07:49:51.654Z,13.95
2023-05-08T07:52:19.986Z,14.03
2023-05-08T07:54:48.375Z,14.18
2023-05-08T07:57:17.251Z,14.21
2023-05-08T07:59:47.321Z,14.35
2023-05-08T08:02:16.033Z,14.28
2023-05-08T08:04:44.755Z,14.25
2023-05-08T08:07:13.592Z,14.00
2023-05-08T08:09:42.026Z,14.02
2023-05-08T08:12:11.548Z,14.30
2023-05-08T08:14:40.020Z,14.59
2023-05-08T08:17:10.419Z,14.36
2023-05-08T08:19:38.930Z,14.50
2023-05-08T08:22:07.927Z,14.34
2023-05-08T08:24:36.625Z,14.26
2023-05-08T08:27:04.946Z,14.96
2023-05-08T08:29:33.338Z,14.48
2023-05-08T08:32:03.407Z,14.90
2023-05-08T08:34:34.748Z,15.04
2023-05-08T08:37:03.413Z,14.71
2023-05-08T08:39:34.762Z,15.02
2023-05-08T08:42:03.363Z,15.52
2023-05-08T08:44:31.805Z,15.48
2023-05-08T08:47:01.043Z,15.30
2023-05-08T08:49:35.054Z,15.57
2023-05-08T08:52:05.013Z,15.39
2023-05-08T08:54:36.427Z,15.58
2023-05-08T08:57:10.393Z,15.88
2023-05-08T08:59:39.592Z,15.63
2023-05-08T09:02:13.029Z,15.71
2023-05-08T09:04:43.464Z,15.72
2023-05-08T09:07:14.213Z,16.00
2023-05-08T09:09:44.594Z,15.63
2023-05-08T09:12:14.913Z,15.93
2023-05-08T09:14:43.735Z,15.58
2023-05-08T09:17:12.033Z,15.68
2023-05-08T09:19:40.979Z,16.09
2023-05-08T09:22:12.168Z,15.69
2023-05-08T09:24:58.511Z,15.72
2023-05-08T09:27:28.759Z,15.34
2023-05-08T09:30:02.584Z,15.62
2023-05-08T09:32:31.915Z,15.81
2023-05-08T09:35:00.490Z,16.20
2023-05-08T09:37:31.398Z,16.74
2023-05-08T09:40:15.844Z,16.73
2023-05-08T09:42:44.369Z,16.83
2023-05-08T09:45:13.734Z,16.83
2023-05-08T09:47:49.748Z,17.07
2023-05-08T09:50:18.602Z,16.99
2023-05-08T09:52:51.077Z,17.10
2023-05-08T09:55:19.552Z,17.33
2023-05-08T09:57:58.425Z,17.46
2023-05-08T10:00:28.278Z,17.67
2023-05-08T10:02:58.488Z,16.87
2023-05-08T10:05:30.158Z,16.95
2023-05-08T10:08:00.976Z,16.91
2023-05-08T10:10:31.834Z,16.88
2023-05-08T10:13:00.719Z,17.17
2023-05-08T10:15:32.633Z,17.03
2023-05-08T10:18:06.338Z,16.85
2023-05-08T10:20:36.197Z,17.52
2023-05-08T10:23:11.688Z,17.09
2023-05-08T10:25:46.649Z,17.33
2023-05-08T10:28:19.867Z,17.61
2023-05-08T10:30:50.893Z,17.50
2023-05-08T10:33:22.427Z,17.21
2023-05-08T10:35:51.227Z,17.05
2023-05-08T10:38:21.899Z,16.67
2023-05-08T10:40:53.379Z,17.35
2023-05-08T10:43:22.273Z,16.89
2023-05-08T10:45:51.207Z,17.37
2023-05-08T10:48:27.670Z,17.08
2023-05-08T10:51:04.634Z,17.48
2023-05-08T10:53:40.576Z,17.63
2023-05-08T10:56:09.589Z,17.51
2023-05-08T10:58:40.512Z,18.03
2023-05-08T11:01:16.661Z,18.31
2023-05-08T11:03:48.110Z,18.32
2023-05-08T11:06:17.043Z,17.95
2023-05-08T11:08:51.977Z,17.88
2023-05-08T11:11:30.494Z,17.76
2023-05-08T11:14:13.535Z,18.38
2023-05-08T11:17:08.159Z,18.42
2023-05-08T11:19:37.957Z,18.33
2023-05-08T11:22:38.289Z,18.52
2023-05-08T11:25:11.185Z,18.35
2023-05-08T11:28:11.596Z,18.38
2023-05-08T11:30:41.660Z,18.93
2023-05-08T11:33:17.621Z,19.31
2023-05-08T11:35:54.256Z,19.33
2023-05-08T11:38:26.099Z,18.87
2023-05-08T11:41:00.870Z,18.97
2023-05-08T11:44:01.138Z,19.33
2023-05-08T11:46:40.136Z,18.69
2023-05-08T11:49:12.902Z,18.28
2023-05-08T11:51:45.119Z,18.30
2023-05-08T11:54:19.277Z,18.58
2023-05-08T11:56:49.275Z,18.29
2023-05-08T11:59:19.034Z,18.54
2023-05-08T12:02:06.982Z,18.72
2023-05-08T12:04:45.574Z,18.79
2023-05-08T12:07:16.317Z,18.74
2023-05-08T12:09:45.019Z,19.14
2023-05-08T12:12:14.690Z,19.66
2023-05-08T12:14:43.784Z,19.69
2023-05-08T12:17:12.443Z,19.03
2023-05-08T12:19:40.803Z,18.73
2023-05-08T12:22:10.409Z,18.34
2023-05-08T12:24:40.217Z,17.88
2023-05-08T12:27:09.609Z,18.08
2023-05-08T12:29:39.785Z,18.26
2023-05-08T12:32:08.394Z,18.31
2023-05-08T12:34:38.280Z,18.27
2023-05-08T12:37:06.685Z,18.27
2023-05-08T12:39:39.073Z,18.30
2023-05-08T12:42:07.827Z,18.46
2023-05-08T12:44:36.666Z,18.52
2023-05-08T12:47:06.779Z,19.02
2023-05-08T12:49:35.294Z,18.65
2023-05-08T12:52:05.266Z,18.51
2023-05-08T12:54:35.266Z,18.66
2023-05-08T12:57:08.227Z,18.79
2023-05-08T12:59:36.788Z,18.60
2023-05-08T13:02:13.269Z,18.63
2023-05-08T13:04:41.835Z,19.00
2023-05-08T13:07:10.208Z,19.55
2023-05-08T13:09:38.744Z,19.30
2023-05-08T13:12:07.847Z,19.03
2023-05-08T13:14:36.507Z,19.25
2023-05-08T13:17:06.590Z,19.39
2023-05-08T13:19:35.241Z,19.66
2023-05-08T13:22:03.707Z,19.19
2023-05-08T13:24:32.149Z,19.22
2023-05-08T13:27:00.712Z,19.41
2023-05-08T13:29:30.083Z,19.21
2023-05-08T13:31:58.747Z,18.46
2023-05-08T13:34:29.120Z,18.58
2023-05-08T13:36:57.988Z,19.01
2023-05-08T13:39:26.435Z,19.28
2023-05-08T13:41:54.821Z,19.38
2023-05-08T13:44:23.467Z,19.47
2023-05-08T13:46:52.144Z,19.41
2023-05-08T13:49:24.439Z,19.08
2023-05-08T13:51:57.071Z,19.44
2023-05-08T13:54:25.803Z,18.46
2023-05-08T13:56:54.674Z,18.62
2023-05-08T13:59:23.284Z,18.30
2023-05-08T14:01:53.136Z,18.42
2023-05-08T14:04:21.886Z,18.69
2023-05-08T14:06:51.960Z,18.63
2023-05-08T14:09:22.002Z,18.28
2023-05-08T14:11:50.646Z,18.17
2023-05-08T14:14:18.828Z,18.24
2023-05-08T14:16:47.308Z,18.45
2023-05-08T14:19:15.572Z,18.64
2023-05-08T14:21:43.845Z,18.75
2023-05-08T14:24:12.472Z,18.74
2023-05-08T14:26:44.869Z,18.73
2023-05-08T14:29:13.595Z,18.66
2023-05-08T14:31:41.794Z,18.89
2023-05-08T14:34:10.440Z,18.93
2023-05-08T14:36:39.464Z,18.93
2023-05-08T14:39:08.941Z,19.00
2023-05-08T14:41:38.515Z,18.53
2023-05-08T14:44:08.632Z,18.35
2023-05-08T14:46:37.577Z,18.88
2023-05-08T14:49:06.789Z,18.90
2023-05-08T14:51:35.538Z,18.98
2023-05-08T14:54:04.736Z,18.97
2023-05-08T14:56:44.423Z,18.82
2023-05-08T14:59:17.405Z,18.46
2023-05-08T15:01:45.946Z,18.35
2023-05-08T15:04:15.086Z,18.36
2023-05-08T15:06:43.341Z,18.34
2023-05-08T15:09:11.998Z,18.44
2023-05-08T15:11:40.201Z,18.48
2023-05-08T15:14:08.811Z,18.47
2023-05-08T15:16:38.842Z,18.52
2023-05-08T15:19:09.980Z,18.48
2023-05-08T15:21:38.434Z,18.43
2023-05-08T15:24:07.663Z,18.49
2023-05-08T15:26:36.744Z,18.47
2023-05-08T15:29:05.842Z,18.41
2023-05-08T15:31:36.403Z,18.45
2023-05-08T15:34:08.928Z,18.38
2023-05-08T15:36:38.361Z,18.27
2023-05-08T15:39:09.605Z,18.14
2023-05-08T15:41:40.129Z,17.93
2023-05-08T15:44:09.532Z,17.93
2023-05-08T15:46:38.153Z,17.84
2023-05-08T15:49:09.060Z,17.71
2023-05-08T15:51:37.858Z,17.73
2023-05-08T15:54:06.488Z,17.74
2023-05-08T15:56:36.125Z,17.90
2023-05-08T15:59:05.253Z,17.85
2023-05-08T16:01:33.896Z,17.70
2023-05-08T16:04:02.236Z,17.60
2023-05-08T16:06:33.481Z,17.56
2023-05-08T16:09:02.532Z,17.55
2023-05-08T16:11:32.506Z,17.32
2023-05-08T16:14:02.426Z,17.41
2023-05-08T16:16:31.167Z,17.43
2023-05-08T16:18:59.664Z,17.44
2023-05-08T16:21:28.151Z,17.28
2023-05-08T16:23:58.182Z,17.14
2023-05-08T16:26:27.362Z,16.91
2023-05-08T16:28:56.277Z,16.87
2023-05-08T16:31:24.997Z,16.81
2023-05-08T16:33:56.766Z,16.81
2023-05-08T16:36:27.309Z,16.78
2023-05-08T16:38:56.510Z,16.79
2023-05-08T16:41:28.044Z,16.69
2023-05-08T16:43:56.718Z,16.54
2023-05-08T16:46:29.843Z,16.56
2023-05-08T16:48:58.627Z,16.51
2023-05-08T16:51:28.266Z,16.21
2023-05-08T16:53:57.997Z,16.13
2023-05-08T16:56:28.681Z,15.92
2023-05-08T16:58:58.480Z,15.73
2023-05-08T17:01:26.948Z,15.49
2023-05-08T17:03:56.572Z,15.42
2023-05-08T17:06:25.387Z,15.42
2023-05-08T17:08:58.259Z,15.44
2023-05-08T17:11:27.967Z,15.36
2023-05-08T17:13:56.600Z,15.47
2023-05-08T17:16:25.837Z,15.47
2023-05-08T17:18:54.878Z,15.48
2023-05-08T17:21:24.202Z,15.45
2023-05-08T17:23:52.405Z,15.41
2023-05-08T17:26:21.893Z,15.40
2023-05-08T17:28:51.799Z,15.42
2023-05-08T17:31:20.700Z,15.39
2023-05-08T17:33:49.468Z,15.40
2023-05-08T17:36:17.910Z,15.46
2023-05-08T17:38:47.532Z,15.39
2023-05-08T17:41:16.585Z,15.38
2023-05-08T17:43:45.849Z,15.36
2023-05-08T17:46:15.870Z,15.34
2023-05-08T17:48:44.159Z,15.37
2023-05-08T17:51:14.039Z,15.37
2023-05-08T17:53:44.105Z,15.36
2023-05-08T17:56:13.005Z,15.36
2023-05-08T17:58:41.285Z,15.32
2023-05-08T18:01:09.716Z,15.35
2023-05-08T18:03:39.505Z,15.34
2023-05-08T18:06:08.628Z,15.30
2023-05-08T18:08:36.836Z,15.18
2023-05-08T18:11:05.309Z,15.30
2023-05-08T18:13:34.965Z,15.26
2023-05-08T18:16:03.386Z,15.29
2023-05-08T18:18:31.930Z,15.24
2023-05-08T18:21:01.712Z,15.23
2023-05-08T18:23:30.200Z,15.20
2023-05-08T18:25:58.380Z,15.10
2023-05-08T18:28:27.006Z,15.01
2023-05-08T18:30:55.533Z,15.05
2023-05-08T18:33:23.788Z,15.12
2023-05-08T18:35:52.667Z,14.85
2023-05-08T18:38:22.635Z,15.05
2023-05-08T18:40:50.877Z,14.99
2023-05-08T18:43:19.296Z,14.97
2023-05-08T18:45:47.844Z,14.94
2023-05-08T18:48:17.196Z,14.76
2023-05-08T18:50:45.336Z,14.90
2023-05-08T18:53:14.900Z,14.86
2023-05-08T18:55:45.723Z,14.74
2023-05-08T18:58:14.411Z,14.86
2023-05-08T19:00:43.196Z,14.81
2023-05-08T19:03:11.796Z,14.76
2023-05-08T19:05:40.266Z,14.75
2023-05-08T19:08:08.949Z,14.67
2023-05-08T19:10:37.218Z,14.69
2023-05-08T19:13:07.227Z,14.66
2023-05-08T19:15:35.644Z,14.63
2023-05-08T19:18:04.756Z,14.63
2023-05-08T19:20:32.965Z,14.62
2023-05-08T19:23:01.098Z,14.64
2023-05-08T19:25:29.227Z,14.64
2023-05-08T19:27:58.756Z,14.64
2023-05-08T19:30:28.519Z,14.62
2023-05-08T19:32:56.802Z,14.61
2023-05-08T19:35:25.304Z,14.57
2023-05-08T19:37:53.846Z,14.30
2023-05-08T19:40:23.201Z,14.50
2023-05-08T19:42:52.490Z,14.48
2023-05-08T19:45:20.986Z,14.43
2023-05-08T19:47:50.718Z,14.15
2023-05-08T19:50:19.053Z,14.43
2023-05-08T19:52:48.812Z,14.39
2023-05-08T19:55:17.806Z,14.13
2023-05-08T19:57:46.177Z,14.24
2023-05-08T20:00:14.975Z,14.35
2023-05-08T20:02:43.821Z,14.31
2023-05-08T20:05:22.418Z,14.26
2023-05-08T20:07:51.833Z,14.27
2023-05-08T20:10:20.155Z,14.19
2023-05-08T20:12:48.467Z,14.08
2023-05-08T20:15:16.493Z,14.15
2023-05-08T20:17:45.088Z,14.08
2023-05-08T20:20:15.110Z,13.96
2023-05-08T20:22:43.998Z,13.83
2023-05-08T20:25:12.142Z,14.02
2023-05-08T20:27:40.401Z,13.99
2023-05-08T20:30:09.892Z,13.96
2023-05-08T20:32:38.386Z,13.91
2023-05-08T20:35:08.538Z,13.86
2023-05-08T20:37:44.680Z,13.84
2023-05-08T20:40:14.000Z,13.84
2023-05-08T20:42:42.551Z,13.76
2023-05-08T20:45:12.041Z,13.80
2023-05-08T20:47:41.530Z,13.78
2023-05-08T20:50:11.198Z,13.77
2023-05-08T20:52:42.565Z,13.75
2023-05-08T20:55:11.762Z,13.68
2023-05-08T20:57:40.236Z,13.49
2023-05-08T21:00:09.855Z,13.58
2023-05-08T21:02:40.283Z,13.53
2023-05-08T21:05:11.568Z,13.51
2023-05-08T21:07:42.513Z,13.34
2023-05-08T21:10:11.676Z,13.48
2023-05-08T21:12:40.288Z,13.49
2023-05-08T21:15:09.539Z,13.50
2023-05-08T21:17:37.835Z,13.40
2023-05-08T21:20:07.185Z,13.54
2023-05-08T21:22:35.400Z,13.43
2023-05-08T21:25:05.588Z,13.51
2023-05-08T21:27:33.891Z,13.57
2023-05-08T21:30:02.410Z,13.50
2023-05-08T21:32:30.816Z,13.53
2023-05-08T21:34:58.977Z,13.49
2023-05-08T21:37:27.571Z,13.42
2023-05-08T21:39:55.615Z,13.44
2023-05-08T21:42:25.065Z,13.38
2023-05-08T21:44:56.154Z,13.37
2023-05-08T21:47:27.444Z,13.34
2023-05-08T21:49:56.153Z,13.39
2023-05-08T21:52:26.108Z,13.38
2023-05-08T21:54:54.415Z,13.30
2023-05-08T21:57:22.627Z,13.31
2023-05-08T21:59:52.115Z,13.26
2023-05-08T22:02:21.172Z,13.31
2023-05-08T22:04:49.286Z,13.16
2023-05-08T22:07:19.632Z,13.25
2023-05-08T22:09:47.820Z,13.27
2023-05-08T22:12:16.060Z,13.16
2023-05-08T22:14:44.422Z,13.07
2023-05-08T22:17:13.863Z,12.96
2023-05-08T22:19:41.955Z,12.82
2023-05-08T22:22:10.089Z,12.79
2023-05-08T22:24:38.162Z,12.81
2023-05-08T22:27:06.635Z,12.79
2023-05-08T22:29:34.690Z,12.63
2023-05-08T22:32:03.497Z,12.82
2023-05-08T22:34:33.607Z,12.76
2023-05-08T22:37:02.126Z,12.71
2023-05-08T22:39:30.243Z,12.79
2023-05-08T22:41:58.421Z,12.78
2023-05-08T22:44:26.884Z,12.70
2023-05-08T22:46:55.306Z,12.71
2023-05-08T22:49:23.533Z,12.77
2023-05-08T22:51:53.473Z,12.74
2023-05-08T22:54:21.682Z,12.60
2023-05-08T22:56:50.076Z,12.78
2023-05-08T22:59:18.131Z,12.77
2023-05-08T23:01:46.231Z,12.74
2023-05-08T23:04:14.553Z,12.76
2023-05-08T23:06:43.315Z,12.76
2023-05-08T23:09:13.482Z,12.74
2023-05-08T23:11:41.774Z,12.77
2023-05-08T23:14:10.096Z,12.66
2023-05-08T23:16:38.161Z,12.77
2023-05-08T23:19:07.445Z,12.79
2023-05-08T23:21:35.758Z,12.72
2023-05-08T23:24:03.998Z,12.75
2023-05-08T23:26:33.569Z,12.76
2023-05-08T23:29:02.807Z,12.68
2023-05-08T23:31:31.206Z,12.72
2023-05-08T23:33:59.358Z,12.70
2023-05-08T23:36:28.160Z,12.74
2023-05-08T23:38:56.744Z,12.72
2023-05-08T23:41:26.046Z,12.70
2023-05-08T23:43:56.120Z,12.68
2023-05-08T23:46:24.465Z,12.51
2023-05-08T23:48:52.645Z,12.59
2023-05-08T23:51:20.981Z,12.55
2023-05-08T23:53:50.259Z,12.56
2023-05-08T23:56:18.442Z,12.46
2023-05-08T23:58:46.788Z,12.44
